createdAt,value
2022-10-11T00:00:44.291Z,2.13
2022-10-11T00:03:22.512Z,1.90
2022-10-11T00:06:03.477Z,2.38
2022-10-11T00:08:41.999Z,2.20
2022-10-11T00:11:20.186Z,2.10
2022-10-11T00:14:00.488Z,2.15
2022-10-11T00:16:42.481Z,2.20
2022-10-11T00:19:21.653Z,1.83
2022-10-11T00:22:01.119Z,2.00
2022-10-11T00:24:39.206Z,2.00
2022-10-11T00:27:17.441Z,1.70
2022-10-11T00:29:55.607Z,2.42
2022-10-11T00:32:36.557Z,2.58
2022-10-11T00:35:15.283Z,2.42
2022-10-11T00:37:52.012Z,2.70
2022-10-11T00:40:30.558Z,2.63
2022-10-11T00:43:20.914Z,2.00
2022-10-11T00:46:04.652Z,2.08
2022-10-11T00:48:48.763Z,2.05
2022-10-11T00:54:15.527Z,2.33
2022-10-11T00:57:03.716Z,2.15
2022-10-11T00:59:48.419Z,2.20
2022-10-11T01:02:28.438Z,2.33
2022-10-11T01:05:28.114Z,3.50
2022-10-11T01:08:08.832Z,2.40
2022-10-11T01:10:47.679Z,1.58
2022-10-11T01:14:06.694Z,1.67
2022-10-11T01:22:49.375Z,2.03
2022-10-11T01:29:07.293Z,1.98
2022-10-11T01:32:16.748Z,1.92
2022-10-11T01:35:20.966Z,2.13
2022-10-11T01:38:07.850Z,2.13
2022-10-11T01:40:53.224Z,2.47
2022-10-11T01:43:33.755Z,2.58
2022-10-11T01:46:14.012Z,1.90
2022-10-11T01:48:57.354Z,1.98
2022-10-11T01:51:42.997Z,2.40
2022-10-11T01:57:59.439Z,2.47
2022-10-11T02:00:57.888Z,2.15
2022-10-11T02:04:03.284Z,2.17
2022-10-11T02:07:08.328Z,2.50
2022-10-11T02:10:11.856Z,3.08
2022-10-11T02:13:01.074Z,2.53
2022-10-11T02:15:43.464Z,2.55
2022-10-11T02:18:27.967Z,2.30
2022-10-11T02:21:10.805Z,1.83
2022-10-11T02:23:55.641Z,2.50
2022-10-11T02:26:34.791Z,2.00
2022-10-11T02:29:16.530Z,2.13
2022-10-11T02:31:58.851Z,2.13
2022-10-11T02:34:45.450Z,2.28
2022-10-11T02:42:51.748Z,2.40
2022-10-11T02:45:36.521Z,2.22
2022-10-11T02:48:16.132Z,1.85
2022-10-11T02:50:56.358Z,2.20
2022-10-11T02:53:34.554Z,2.17
2022-10-11T02:56:13.683Z,2.30
2022-10-11T02:58:52.445Z,1.98
2022-10-11T03:01:30.846Z,2.17
2022-10-11T03:04:09.477Z,2.42
2022-10-11T03:06:49.774Z,2.67
2022-10-11T03:09:28.609Z,2.40
2022-10-11T03:12:08.515Z,2.83
2022-10-11T03:14:46.616Z,2.38
2022-10-11T03:17:36.005Z,2.53
2022-10-11T03:20:16.935Z,2.95
2022-10-11T03:22:56.038Z,1.80
2022-10-11T03:25:35.893Z,2.40
2022-10-11T03:28:15.228Z,1.70
2022-10-11T03:30:53.868Z,1.70
2022-10-11T03:33:33.738Z,2.20
2022-10-11T03:36:14.294Z,2.72
2022-10-11T03:38:53.734Z,2.15
2022-10-11T03:41:32.780Z,2.95
2022-10-11T03:44:12.935Z,2.60
2022-10-11T03:46:52.526Z,3.17
2022-10-11T03:49:32.983Z,2.35
2022-10-11T03:52:12.152Z,2.17
2022-10-11T03:54:51.605Z,2.78
2022-10-11T03:57:30.953Z,2.83
2022-10-11T04:00:10.135Z,2.42
2022-10-11T04:02:49.950Z,2.47
2022-10-11T04:05:30.729Z,1.88
2022-10-11T04:08:12.188Z,2.63
2022-10-11T04:10:53.011Z,2.30
2022-10-11T04:13:31.793Z,2.15
2022-10-11T04:16:10.974Z,1.63
2022-10-11T04:18:49.968Z,2.30
2022-10-11T04:21:29.011Z,2.05
2022-10-11T04:24:07.997Z,1.98
2022-10-11T04:26:47.651Z,2.00
2022-10-11T04:29:31.447Z,2.08
2022-10-11T04:32:13.062Z,2.38
2022-10-11T04:34:51.861Z,2.58
2022-10-11T04:37:31.195Z,2.40
2022-10-11T04:40:10.608Z,2.17
2022-10-11T04:42:52.118Z,2.15
2022-10-11T04:45:31.553Z,2.42
2022-10-11T04:48:10.757Z,2.75
2022-10-11T04:50:50.122Z,2.00
2022-10-11T04:53:28.880Z,2.13
2022-10-11T04:56:11.971Z,3.20
2022-10-11T04:58:52.196Z,2.60
2022-10-11T05:01:31.440Z,3.40
2022-10-11T05:04:10.284Z,2.50
2022-10-11T05:06:49.411Z,2.35
2022-10-11T05:09:27.674Z,2.60
2022-10-11T05:12:06.565Z,3.08
2022-10-11T05:14:45.575Z,2.15
2022-10-11T05:17:23.797Z,2.85
2022-10-11T05:20:02.484Z,2.10
2022-10-11T05:22:41.813Z,2.60
2022-10-11T05:25:20.034Z,2.10
2022-10-11T05:27:58.647Z,2.58
2022-10-11T05:30:37.995Z,1.83
2022-10-11T05:33:16.321Z,1.58
2022-10-11T05:35:54.715Z,1.98
2022-10-11T05:38:34.411Z,2.15
2022-10-11T05:41:15.563Z,2.42
2022-10-11T05:43:53.842Z,1.88
2022-10-11T05:46:33.439Z,2.42
2022-10-11T05:49:10.209Z,1.80
2022-10-11T05:51:49.293Z,2.28
2022-10-11T05:54:31.253Z,1.92
2022-10-11T05:57:10.176Z,2.30
2022-10-11T05:59:50.480Z,1.80
2022-10-11T06:02:29.741Z,1.70
2022-10-11T06:05:10.431Z,2.20
2022-10-11T06:07:48.917Z,1.83
2022-10-11T06:10:28.467Z,1.77
2022-10-11T06:13:07.895Z,2.40
2022-10-11T06:16:13.706Z,2.70
2022-10-11T06:19:24.667Z,1.88
2022-10-11T06:22:32.450Z,1.90
2022-10-11T06:25:24.373Z,1.52
2022-10-11T06:28:20.493Z,1.38
2022-10-11T06:31:18.731Z,2.10
2022-10-11T06:34:12.325Z,1.40
2022-10-11T06:37:16.395Z,1.27
2022-10-11T06:40:12.533Z,1.05
2022-10-11T06:43:09.481Z,2.10
2022-10-11T06:46:07.887Z,1.50
2022-10-11T06:49:07.200Z,1.45
2022-10-11T06:51:59.372Z,1.70
2022-10-11T06:54:56.581Z,1.50
2022-10-11T06:57:49.389Z,1.00
2022-10-11T07:01:03.731Z,1.17
2022-10-11T07:03:58.267Z,1.05
2022-10-11T07:06:51.168Z,1.77
2022-10-11T07:09:43.769Z,1.17
2022-10-11T07:12:11.187Z,1.60
2022-10-11T07:14:38.606Z,1.10
2022-10-11T07:17:06.068Z,1.23
2022-10-11T07:19:33.774Z,1.10
2022-10-11T07:22:01.378Z,0.80
2022-10-11T07:24:28.947Z,1.13
2022-10-11T07:26:56.592Z,0.85
2022-10-11T07:29:24.184Z,1.05
2022-10-11T07:31:51.693Z,1.10
2022-10-11T07:34:21.083Z,1.23
2022-10-11T07:36:48.661Z,0.85
2022-10-11T07:39:15.965Z,0.82
2022-10-11T07:41:45.945Z,1.02
2022-10-11T07:44:14.692Z,0.75
2022-10-11T07:46:42.681Z,0.90
2022-10-11T07:49:10.004Z,0.85
2022-10-11T07:51:37.400Z,0.80
2022-10-11T07:54:07.446Z,1.25
2022-10-11T07:56:35.170Z,0.68
2022-10-11T07:59:06.074Z,1.00
2022-10-11T08:01:33.619Z,0.47
2022-10-11T08:04:01.119Z,1.08
2022-10-11T08:06:32.853Z,1.00
2022-10-11T08:09:02.251Z,0.90
2022-10-11T08:11:33.690Z,1.40
2022-10-11T08:14:02.009Z,0.88
2022-10-11T08:16:29.448Z,0.93
2022-10-11T08:18:57.335Z,0.90
2022-10-11T08:21:26.587Z,0.90
2022-10-11T08:23:53.981Z,1.23
2022-10-11T08:26:21.897Z,0.90
2022-10-11T08:28:49.617Z,0.70
2022-10-11T08:31:17.459Z,1.15
2022-10-11T08:33:44.970Z,1.00
2022-10-11T08:36:13.758Z,0.82
2022-10-11T08:38:41.867Z,0.80
2022-10-11T08:47:23.897Z,1.00
2022-10-11T08:49:51.842Z,0.60
2022-10-11T08:52:24.442Z,0.80
2022-10-11T08:54:58.534Z,1.10
2022-10-11T08:57:29.883Z,1.00
2022-10-11T08:59:59.882Z,1.00
2022-10-11T09:05:31.495Z,1.38
2022-10-11T09:08:22.775Z,0.70
2022-10-11T09:22:01.082Z,1.00
2022-10-11T09:30:16.744Z,1.27
2022-10-11T09:32:51.992Z,1.05
2022-10-11T09:35:22.359Z,1.00
2022-10-11T09:38:01.342Z,0.93
2022-10-11T09:41:08.380Z,0.90
2022-10-11T09:43:35.880Z,0.70
2022-10-11T09:46:03.596Z,0.80
2022-10-11T09:48:41.658Z,0.90
2022-10-11T09:51:17.456Z,0.75
2022-10-11T09:53:56.276Z,0.77
2022-10-11T09:56:26.949Z,1.00
2022-10-11T10:07:32.968Z,1.20
2022-10-11T10:10:29.281Z,0.68
2022-10-11T10:13:00.383Z,1.00
2022-10-11T10:15:38.441Z,1.15
2022-10-11T10:18:10.705Z,0.90
2022-10-11T10:20:38.660Z,0.75
2022-10-11T10:23:26.976Z,0.85
2022-10-11T10:26:18.641Z,0.75
2022-10-11T10:32:13.408Z,0.73
2022-10-11T10:35:03.187Z,0.90
2022-10-11T10:37:39.901Z,1.55
2022-10-11T10:40:16.380Z,0.65
2022-10-11T10:42:43.782Z,0.70
2022-10-11T10:45:21.385Z,0.80
2022-10-11T10:50:58.727Z,0.60
2022-10-11T10:53:38.571Z,0.40
2022-10-11T10:56:12.790Z,0.50
2022-10-11T11:01:39.296Z,1.00
2022-10-11T11:04:31.014Z,0.80
2022-10-11T11:07:27.195Z,0.40
2022-10-11T11:10:04.015Z,0.50
2022-10-11T11:18:18.515Z,1.00
2022-10-11T11:26:47.268Z,0.70
2022-10-11T11:29:40.190Z,0.63
2022-10-11T11:40:05.562Z,0.50
2022-10-11T11:42:49.007Z,0.60
2022-10-11T11:48:03.008Z,0.60
2022-10-11T11:50:37.539Z,0.57
2022-10-11T11:53:12.510Z,0.40
2022-10-11T11:56:15.308Z,0.57
2022-10-11T11:58:53.787Z,1.20
2022-10-11T12:04:41.259Z,0.82
2022-10-11T12:09:52.804Z,0.70
2022-10-11T12:20:39.050Z,0.40
2022-10-11T12:29:29.065Z,0.40
2022-10-11T12:39:58.494Z,0.80
2022-10-11T12:45:29.644Z,0.65
2022-10-11T12:48:23.180Z,0.60
2022-10-11T12:54:26.058Z,0.40
2022-10-11T12:59:45.142Z,0.63
2022-10-11T13:05:09.329Z,0.50
2022-10-11T13:07:37.123Z,0.80
2022-10-11T13:10:06.360Z,0.60
2022-10-11T13:12:42.277Z,0.75
2022-10-11T13:15:15.993Z,0.75
2022-10-11T13:17:43.880Z,0.22
2022-10-11T13:22:53.356Z,0.90
2022-10-11T13:25:24.475Z,1.73
2022-10-11T13:27:54.372Z,1.05
2022-10-11T13:30:29.228Z,1.33
2022-10-11T13:32:58.087Z,1.35
2022-10-11T13:38:08.304Z,2.30
2022-10-11T13:40:36.904Z,2.70
2022-10-11T13:43:06.550Z,1.80
2022-10-11T13:45:37.219Z,1.17
2022-10-11T13:48:05.329Z,0.75
2022-10-11T13:50:34.725Z,1.00
2022-10-11T13:53:21.653Z,2.47
2022-10-11T13:56:00.311Z,3.00
2022-10-11T14:01:28.112Z,2.97
2022-10-11T14:04:00.661Z,3.58
2022-10-11T14:06:53.167Z,4.60
2022-10-11T14:09:28.018Z,4.50
2022-10-11T14:11:56.474Z,4.53
2022-10-11T14:14:42.466Z,3.63
2022-10-11T14:20:25.150Z,2.60
2022-10-11T14:22:55.429Z,1.40
2022-10-11T14:25:23.397Z,2.10
2022-10-11T14:27:51.500Z,1.67
2022-10-11T14:30:26.511Z,2.30
2022-10-11T14:32:57.564Z,2.08
2022-10-11T14:35:32.532Z,2.30
2022-10-11T14:38:01.016Z,1.58
2022-10-11T14:40:31.277Z,1.23
2022-10-11T14:42:59.525Z,1.58
2022-10-11T14:45:27.564Z,1.30
2022-10-11T14:47:56.925Z,1.77
2022-10-11T14:50:48.647Z,1.42
2022-10-11T14:53:17.005Z,1.05
2022-10-11T14:55:45.589Z,1.23
2022-10-11T14:58:16.476Z,1.20
2022-10-11T15:00:45.543Z,1.15
2022-10-11T15:03:19.992Z,1.52
2022-10-11T15:05:51.123Z,1.23
2022-10-11T15:08:19.237Z,1.17
2022-10-11T15:10:46.916Z,1.55
2022-10-11T15:13:14.947Z,2.35
2022-10-11T15:15:43.088Z,2.35
2022-10-11T15:18:17.055Z,3.85
2022-10-11T15:20:46.910Z,3.35
2022-10-11T15:23:15.010Z,3.28
2022-10-11T15:25:43.178Z,5.15
2022-10-11T15:28:22.212Z,5.85
2022-10-11T15:30:49.930Z,7.38
2022-10-11T15:33:17.662Z,11.68
2022-10-11T15:35:45.431Z,11.07
2022-10-11T15:38:20.403Z,13.32
2022-10-11T15:40:49.421Z,13.98
2022-10-11T15:43:20.764Z,15.68
2022-10-11T15:45:51.285Z,15.45
2022-10-11T15:48:20.135Z,10.13
2022-10-11T15:50:48.379Z,12.00
2022-10-11T15:53:19.460Z,10.45
2022-10-11T15:55:51.162Z,6.63
2022-10-11T15:58:24.309Z,7.53
2022-10-11T16:00:54.527Z,7.10
2022-10-11T16:03:25.793Z,6.22
2022-10-11T16:06:05.226Z,5.68
2022-10-11T16:08:40.349Z,5.47
2022-10-11T16:11:10.741Z,6.13
2022-10-11T16:13:38.511Z,5.05
2022-10-11T16:16:08.945Z,4.70
2022-10-11T16:18:37.329Z,4.85
2022-10-11T16:21:09.366Z,3.55
2022-10-11T16:23:37.406Z,3.53
2022-10-11T16:26:08.535Z,3.70
2022-10-11T16:28:36.776Z,3.95
2022-10-11T16:31:09.502Z,2.90
2022-10-11T16:33:46.345Z,3.42
2022-10-11T16:36:36.297Z,3.10
2022-10-11T16:41:34.849Z,4.18
2022-10-11T16:44:02.702Z,3.58
2022-10-11T16:46:31.720Z,4.03
2022-10-11T16:49:07.988Z,5.25
2022-10-11T16:51:40.704Z,5.13
2022-10-11T16:54:08.319Z,5.45
2022-10-11T16:56:39.924Z,4.20
2022-10-11T16:59:08.841Z,5.30
2022-10-11T17:01:37.149Z,5.25
2022-10-11T17:04:05.417Z,4.72
2022-10-11T17:06:33.328Z,4.15
2022-10-11T17:09:01.124Z,3.97
2022-10-11T17:11:28.920Z,3.78
2022-10-11T17:13:56.674Z,3.53
2022-10-11T17:16:24.375Z,3.97
2022-10-11T17:18:52.102Z,3.33
2022-10-11T17:21:21.602Z,3.30
2022-10-11T17:23:49.727Z,4.03
2022-10-11T17:26:32.120Z,3.30
2022-10-11T17:29:17.475Z,4.18
2022-10-11T17:31:49.238Z,4.40
2022-10-11T17:34:17.677Z,4.38
2022-10-11T17:36:45.362Z,4.07
2022-10-11T17:39:16.181Z,4.55
2022-10-11T17:41:44.616Z,3.95
2022-10-11T17:44:13.447Z,4.55
2022-10-11T17:46:41.024Z,4.43
2022-10-11T17:49:09.418Z,4.70
2022-10-11T17:51:37.857Z,4.00
2022-10-11T17:54:06.448Z,4.32
2022-10-11T17:56:37.971Z,5.50
2022-10-11T17:59:06.263Z,4.38
2022-10-11T18:01:34.506Z,4.28
2022-10-11T18:04:04.857Z,5.25
2022-10-11T18:06:38.845Z,4.20
2022-10-11T18:09:06.475Z,3.63
2022-10-11T18:11:34.222Z,4.57
2022-10-11T18:14:02.070Z,3.92
2022-10-11T18:16:31.483Z,3.92
2022-10-11T18:19:02.258Z,4.82
2022-10-11T18:21:34.725Z,4.75
2022-10-11T18:24:05.308Z,4.93
2022-10-11T18:26:33.464Z,4.80
2022-10-11T18:29:01.877Z,4.35
2022-10-11T18:31:31.522Z,4.57
2022-10-11T18:34:00.126Z,4.60
2022-10-11T18:36:30.029Z,3.20
2022-10-11T18:39:01.746Z,4.25
2022-10-11T18:41:32.135Z,3.40
2022-10-11T18:44:02.723Z,3.72
2022-10-11T18:46:31.443Z,4.45
2022-10-11T18:49:01.632Z,3.70
2022-10-11T18:51:32.799Z,4.35
2022-10-11T18:54:01.094Z,4.40
2022-10-11T18:56:31.185Z,4.55
2022-10-11T18:58:59.947Z,4.07
2022-10-11T19:01:31.115Z,4.80
2022-10-11T19:04:01.109Z,4.25
2022-10-11T19:06:33.536Z,3.75
2022-10-11T19:09:09.630Z,4.18
2022-10-11T19:11:38.129Z,3.95
2022-10-11T19:14:08.802Z,4.35
2022-10-11T19:16:39.980Z,4.63
2022-10-11T19:19:09.849Z,4.45
2022-10-11T19:21:38.556Z,4.22
2022-10-11T19:24:06.746Z,3.95
2022-10-11T19:26:37.396Z,4.63
2022-10-11T19:29:12.122Z,3.78
2022-10-11T19:31:43.771Z,3.60
2022-10-11T19:34:12.301Z,4.07
2022-10-11T19:36:43.031Z,4.75
2022-10-11T19:39:15.137Z,4.50
2022-10-11T19:41:44.241Z,4.07
2022-10-11T19:44:13.307Z,4.03
2022-10-11T19:46:51.563Z,4.00
2022-10-11T19:49:25.333Z,4.15
2022-10-11T19:51:55.681Z,4.43
2022-10-11T19:54:23.646Z,3.92
2022-10-11T19:56:51.335Z,4.22
2022-10-11T19:59:19.013Z,3.63
2022-10-11T20:01:51.991Z,3.72
2022-10-11T20:07:09.008Z,4.13
2022-10-11T20:09:37.003Z,4.55
2022-10-11T20:12:05.209Z,3.88
2022-10-11T20:14:32.907Z,4.20
2022-10-11T20:17:00.574Z,4.13
2022-10-11T20:19:31.133Z,4.13
2022-10-11T20:22:00.702Z,3.45
2022-10-11T20:24:33.415Z,3.83
2022-10-11T20:27:04.101Z,3.78
2022-10-11T20:29:31.622Z,4.03
2022-10-11T20:31:59.364Z,3.85
2022-10-11T20:34:27.982Z,4.10
2022-10-11T20:36:55.729Z,3.47
2022-10-11T20:39:23.988Z,3.70
2022-10-11T20:41:51.520Z,3.60
2022-10-11T20:44:19.187Z,3.42
2022-10-11T20:46:46.727Z,3.70
2022-10-11T20:49:14.228Z,3.70
2022-10-11T20:51:42.979Z,4.13
2022-10-11T20:54:11.135Z,4.05
2022-10-11T20:56:39.661Z,3.90
2022-10-11T20:59:08.243Z,3.92
2022-10-11T21:01:38.711Z,3.85
2022-10-11T21:04:08.588Z,3.53
2022-10-11T21:06:36.025Z,4.35
2022-10-11T21:09:03.508Z,3.65
2022-10-11T21:11:33.663Z,3.30
2022-10-11T21:14:03.906Z,4.25
2022-10-11T21:16:32.472Z,3.25
2022-10-11T21:19:01.970Z,4.53
2022-10-11T21:21:30.322Z,4.15
2022-10-11T21:24:00.159Z,3.78
2022-10-11T21:26:28.401Z,3.25
2022-10-11T21:28:55.792Z,4.10
2022-10-11T21:31:23.854Z,3.90
2022-10-11T21:33:51.404Z,3.70
2022-10-11T21:36:22.201Z,4.28
2022-10-11T21:38:52.329Z,3.60
2022-10-11T21:41:22.627Z,4.03
2022-10-11T21:43:50.442Z,4.03
2022-10-11T21:48:56.286Z,2.92
2022-10-11T21:51:26.612Z,4.15
2022-10-11T21:53:55.295Z,4.10
2022-10-11T21:56:22.802Z,3.50
2022-10-11T21:58:51.192Z,3.13
2022-10-11T22:01:19.714Z,3.15
2022-10-11T22:03:47.704Z,3.72
2022-10-11T22:06:15.629Z,3.60
2022-10-11T22:08:43.207Z,4.53
2022-10-11T22:11:11.750Z,3.95
2022-10-11T22:13:39.222Z,4.90
2022-10-11T22:16:09.254Z,3.75
2022-10-11T22:18:36.968Z,4.25
2022-10-11T22:23:43.305Z,4.43
2022-10-11T22:26:14.705Z,4.88
2022-10-11T22:28:42.843Z,4.72
2022-10-11T22:31:11.361Z,4.20
2022-10-11T22:33:39.327Z,4.97
2022-10-11T22:36:09.989Z,5.07
2022-10-11T22:38:40.314Z,4.97
2022-10-11T22:41:08.398Z,4.47
2022-10-11T22:43:35.862Z,4.90
2022-10-11T22:46:03.526Z,5.00
2022-10-11T22:48:31.219Z,4.70
2022-10-11T22:50:58.705Z,4.82
2022-10-11T22:53:26.183Z,5.03
2022-10-11T22:55:54.031Z,5.68
2022-10-11T22:58:21.687Z,4.95
2022-10-11T23:00:51.561Z,5.55
2022-10-11T23:03:19.837Z,5.65
2022-10-11T23:05:56.627Z,6.18
2022-10-11T23:08:24.690Z,5.10
2022-10-11T23:10:52.691Z,6.00
2022-10-11T23:13:20.647Z,4.60
2022-10-11T23:15:48.645Z,4.57
2022-10-11T23:18:18.749Z,5.22
2022-10-11T23:20:46.069Z,5.72
2022-10-11T23:23:13.494Z,6.63
2022-10-11T23:25:40.852Z,6.25
2022-10-11T23:28:08.218Z,6.35
2022-10-11T23:30:35.596Z,5.82
2022-10-11T23:33:02.979Z,7.15
2022-10-11T23:35:30.309Z,6.22
2022-10-11T23:37:57.943Z,5.35
2022-10-11T23:40:25.337Z,6.00
2022-10-11T23:42:52.575Z,7.93
2022-10-11T23:45:19.997Z,6.07
2022-10-11T23:47:47.325Z,6.97
2022-10-11T23:50:14.802Z,7.30
2022-10-11T23:52:42.204Z,7.15
2022-10-11T23:55:09.807Z,7.32
2022-10-11T23:57:38.450Z,7.80
